Time;durP1;ratioP1;P1;durP2;ratioP2;P2;SDS_P1;SDS_P2;PMS_P1;PMS_P2;Temp;Humidity;BMP_temperature;BMP_pressure;BME280_temperature;BME280_humidity;BME280_pressure;Samples;Min_cycle;Max_cycle;Signal;HPM_P1;HPM_P2
2021/01/15 00:00:43;;;;;;;17.52;12.27;;;13.60;2201.60;;;;;;4936942;29;20047;-73
2021/01/15 00:03:09;;;;;;;18.73;12.45;;;13.60;2201.60;;;;;;4935479;29;20413;-72
2021/01/15 00:05:38;;;;;;;15.07;11.23;;;13.50;2201.60;;;;;;4937258;29;20060;-70
2021/01/15 00:08:05;;;;;;;18.20;13.18;;;13.50;2201.60;;;;;;4934760;29;20057;-72
2021/01/15 00:10:31;;;;;;;16.38;11.10;;;13.50;2201.60;;;;;;4936429;29;20031;-73
2021/01/15 00:12:56;;;;;;;14.43;10.10;;;13.50;2201.60;;;;;;4935243;29;20135;-71
2021/01/15 00:15:22;;;;;;;15.38;11.23;;;13.50;2201.60;;;;;;4936725;29;20031;-72
2021/01/15 00:17:48;;;;;;;13.25;10.13;;;13.50;2201.60;;;;;;4935693;29;20094;-71
2021/01/15 00:20:14;;;;;;;14.57;11.20;;;13.50;2201.60;;;;;;4936001;29;20124;-71
2021/01/15 00:22:43;;;;;;;13.35;10.90;;;13.50;2201.60;;;;;;4934944;29;20028;-72
2021/01/15 00:25:10;;;;;;;14.73;10.55;;;13.50;2201.60;;;;;;4936548;29;20055;-70
2021/01/15 00:27:39;;;;;;;14.57;11.48;;;13.50;2201.60;;;;;;4935394;29;20040;-71
2021/01/15 00:30:09;;;;;;;15.73;11.32;;;13.50;2201.60;;;;;;4923668;29;20024;-73
2021/01/15 00:32:36;;;;;;;13.93;10.82;;;13.50;2201.60;;;;;;4934781;29;20111;-72
2021/01/15 00:35:04;;;;;;;16.77;11.80;;;13.60;2201.60;;;;;;4936244;29;20028;-68
2021/01/15 00:37:30;;;;;;;17.60;11.48;;;13.60;2201.60;;;;;;4933518;29;20413;-73
2021/01/15 00:39:55;;;;;;;14.65;11.18;;;13.60;2201.60;;;;;;4936304;29;20035;-71
2021/01/15 00:42:21;;;;;;;15.63;10.60;;;13.60;2201.60;;;;;;4933831;29;20048;-72
2021/01/15 00:44:47;;;;;;;15.57;11.55;;;13.60;2201.60;;;;;;4931076;29;20047;-72
2021/01/15 00:47:13;;;;;;;14.10;10.95;;;13.60;2201.60;;;;;;4935131;29;20047;-72
2021/01/15 00:49:38;;;;;;;17.48;12.20;;;13.70;2201.60;;;;;;4935982;29;20039;-72
2021/01/15 00:52:04;;;;;;;14.27;10.77;;;13.60;2201.60;;;;;;4936099;29;20028;-72
2021/01/15 00:54:30;;;;;;;16.80;12.13;;;13.70;2201.60;;;;;;4934145;29;20094;-71
2021/01/15 00:57:02;;;;;;;15.43;12.02;;;13.70;2201.60;;;;;;4937889;29;20024;-73
2021/01/15 00:59:28;;;;;;;16.70;12.57;;;13.70;2201.60;;;;;;4936434;29;20059;-72
2021/01/15 01:01:54;;;;;;;15.90;12.10;;;38.40;2201.60;;;;;;4936568;29;20485;-71
2021/01/15 01:04:20;;;;;;;21.23;11.38;;;38.40;2201.60;;;;;;4933424;29;20044;-71
2021/01/15 01:06:46;;;;;;;14.85;10.90;;;38.40;2201.60;;;;;;4934577;29;20470;-72
2021/01/15 01:09:12;;;;;;;17.70;11.65;;;38.40;2201.60;;;;;;4934892;29;20032;-71
2021/01/15 01:11:38;;;;;;;15.93;11.73;;;38.50;2201.60;;;;;;4936031;29;20030;-70
2021/01/15 01:14:04;;;;;;;15.82;11.30;;;38.50;2201.60;;;;;;4935808;29;20099;-72
2021/01/15 01:16:33;;;;;;;15.77;11.23;;;38.50;2201.60;;;;;;4934078;29;20393;-71
2021/01/15 01:18:59;;;;;;;17.33;11.88;;;38.50;2201.60;;;;;;4934963;29;20061;-72
2021/01/15 01:21:25;;;;;;;18.45;11.75;;;38.50;2201.60;;;;;;4935544;29;20702;-70
2021/01/15 01:23:52;;;;;;;16.40;11.23;;;38.50;2201.60;;;;;;4934673;29;20091;-71
2021/01/15 01:26:19;;;;;;;15.95;11.02;;;38.50;2201.60;;;;;;4934408;29;20039;-72
2021/01/15 01:28:45;;;;;;;16.33;10.93;;;38.60;2201.60;;;;;;4935185;29;20454;-69
2021/01/15 01:31:12;;;;;;;16.15;11.40;;;38.60;2201.60;;;;;;4935551;29;20031;-71
2021/01/15 01:33:39;;;;;;;16.20;11.88;;;38.60;2201.60;;;;;;4935115;29;20035;-68
2021/01/15 01:36:06;;;;;;;17.50;11.90;;;38.60;2201.60;;;;;;4933933;29;20409;-73
2021/01/15 01:38:32;;;;;;;18.15;12.70;;;38.60;2201.60;;;;;;4933797;29;20393;-71
2021/01/15 01:40:58;;;;;;;15.57;10.93;;;38.50;2201.60;;;;;;4934866;29;20051;-71
2021/01/15 01:43:25;;;;;;;16.65;11.65;;;38.50;2201.60;;;;;;4933417;29;20525;-71
2021/01/15 01:45:51;;;;;;;16.83;11.52;;;38.40;2201.60;;;;;;4935461;29;20027;-71
2021/01/15 01:48:18;;;;;;;14.55;10.02;;;13.70;2201.60;;;;;;4933002;29;20027;-72
2021/01/15 01:50:49;;;;;;;15.25;10.27;;;13.60;2201.60;;;;;;4935267;29;20043;-72
2021/01/15 01:53:18;;;;;;;13.80;10.30;;;13.50;2201.60;;;;;;4934205;29;20039;-72
2021/01/15 01:55:45;;;;;;;16.05;10.85;;;13.50;2201.60;;;;;;4935078;29;20035;-70
2021/01/15 01:58:13;;;;;;;16.08;10.80;;;13.40;2201.60;;;;;;4934922;29;20481;-73
2021/01/15 02:00:40;;;;;;;16.90;11.23;;;13.40;2201.60;;;;;;4935759;29;20054;-72
2021/01/15 02:03:07;;;;;;;15.98;10.98;;;13.40;2201.60;;;;;;4933829;29;20050;-71
2021/01/15 02:05:32;;;;;;;14.55;10.60;;;13.30;2201.60;;;;;;4932333;29;20111;-72
2021/01/15 02:07:58;;;;;;;16.48;11.25;;;13.30;2201.60;;;;;;4932427;29;20131;-71
2021/01/15 02:10:36;;;;;;;17.92;11.85;;;13.20;2201.60;;;;;;4934653;29;20123;-70
2021/01/15 02:13:10;;;;;;;19.63;13.63;;;13.20;2201.60;;;;;;4934507;29;20028;-70
2021/01/15 02:15:46;;;;;;;17.17;11.90;;;13.20;2201.60;;;;;;4932844;29;20060;-69
2021/01/15 02:18:32;;;;;;;14.80;10.93;;;13.20;2201.60;;;;;;4929720;29;20023;-71
2021/01/15 02:21:25;;;;;;;14.02;10.60;;;13.30;2201.60;;;;;;4933623;29;20095;-69
2021/01/15 02:23:55;;;;;;;13.60;10.40;;;13.30;2201.60;;;;;;4934907;29;20110;-72
2021/01/15 02:26:39;;;;;;;15.30;10.77;;;13.40;2201.60;;;;;;4933872;29;20048;-72
2021/01/15 02:29:14;;;;;;;16.25;10.25;;;13.50;2201.60;;;;;;4930513;29;20115;-72
2021/01/15 02:31:46;;;;;;;13.35;10.25;;;13.60;2201.60;;;;;;4933394;29;20110;-71
2021/01/15 02:34:21;;;;;;;15.15;10.95;;;13.60;2201.60;;;;;;4934729;29;20055;-72
2021/01/15 02:37:11;;;;;;;14.75;11.10;;;13.60;2201.60;;;;;;4931760;29;20043;-72
2021/01/15 02:40:12;;;;;;;14.63;10.63;;;13.70;2201.60;;;;;;4933663;29;20057;-71
2021/01/15 02:42:40;;;;;;;15.27;10.73;;;13.70;2201.60;;;;;;4916469;29;20043;-71
2021/01/15 02:45:12;;;;;;;16.80;10.15;;;38.40;2201.60;;;;;;4933876;29;20115;-72
2021/01/15 02:47:56;;;;;;;15.02;10.35;;;38.40;2201.60;;;;;;4933852;29;20035;-73
2021/01/15 02:50:23;;;;;;;14.77;10.23;;;38.40;2201.60;;;;;;4924640;29;20047;-71
2021/01/15 02:52:49;;;;;;;15.40;10.45;;;38.40;2201.60;;;;;;4933695;29;20028;-71
2021/01/15 02:55:15;;;;;;;14.38;10.10;;;38.40;2201.60;;;;;;4937659;29;20036;-72
2021/01/15 02:57:41;;;;;;;14.18;10.13;;;38.40;2201.60;;;;;;4938187;29;20032;-72
2021/01/15 03:00:16;;;;;;;14.52;9.93;;;38.40;2201.60;;;;;;4936859;29;20109;-72
2021/01/15 03:03:19;;;;;;;15.20;10.43;;;38.40;2201.60;;;;;;4939672;29;20044;-73
2021/01/15 03:05:52;;;;;;;15.40;11.07;;;38.50;2201.60;;;;;;4939657;29;20042;-71
2021/01/15 03:08:20;;;;;;;11.60;7.90;;;38.50;2201.60;;;;;;4937030;29;20039;-73
2021/01/15 03:10:48;;;;;;;14.50;10.60;;;38.50;2201.60;;;;;;4936374;29;20188;-72
2021/01/15 03:13:15;;;;;;;15.23;10.85;;;38.50;2201.60;;;;;;4937650;29;20055;-72
2021/01/15 03:15:42;;;;;;;14.10;10.77;;;38.50;2201.60;;;;;;4938454;29;20028;-70
2021/01/15 03:18:08;;;;;;;14.77;10.63;;;38.50;2201.60;;;;;;4937473;29;20051;-71
2021/01/15 03:20:35;;;;;;;14.95;10.70;;;38.50;2201.60;;;;;;4936726;29;20028;-72
2021/01/15 03:23:01;;;;;;;14.82;10.52;;;38.60;2201.60;;;;;;4940985;29;20087;-73
2021/01/15 03:25:27;;;;;;;16.60;10.82;;;38.60;2201.60;;;;;;4939530;29;20123;-70
2021/01/15 03:27:54;;;;;;;16.27;10.48;;;38.60;2201.60;;;;;;4934758;29;20035;-74
2021/01/15 03:30:22;;;;;;;15.50;10.40;;;38.60;2201.60;;;;;;4931982;29;20032;-72
2021/01/15 03:32:52;;;;;;;17.23;11.07;;;38.60;2201.60;;;;;;4941083;29;20059;-71
2021/01/15 03:35:25;;;;;;;17.42;11.88;;;38.60;2201.60;;;;;;4937516;29;20028;-71
2021/01/15 03:38:03;;;;;;;16.67;11.40;;;38.70;2201.60;;;;;;4935793;29;20040;-69
2021/01/15 03:40:42;;;;;;;17.08;11.30;;;38.70;2201.60;;;;;;4936074;29;20478;-70
2021/01/15 03:43:18;;;;;;;15.93;11.52;;;38.70;2201.60;;;;;;4935944;29;20058;-71
2021/01/15 03:45:51;;;;;;;17.15;11.25;;;38.70;2201.60;;;;;;4936280;29;20036;-71
2021/01/15 03:48:21;;;;;;;18.73;12.18;;;38.70;2201.60;;;;;;4936400;29;20035;-80
2021/01/15 03:50:47;;;;;;;20.48;10.93;;;38.70;2201.60;;;;;;4935106;29;20039;-69
2021/01/15 03:53:14;;;;;;;17.42;11.02;;;38.70;2201.60;;;;;;4936378;29;20056;-70
2021/01/15 03:55:39;;;;;;;16.98;11.45;;;38.70;2201.60;;;;;;4936574;29;20032;-71
2021/01/15 03:58:05;;;;;;;18.02;11.27;;;38.80;2201.60;;;;;;4937098;29;20031;-71
2021/01/15 04:00:31;;;;;;;17.40;11.57;;;38.80;2201.60;;;;;;4935674;29;20024;-71
2021/01/15 04:02:56;;;;;;;19.67;12.30;;;38.80;2201.60;;;;;;4935979;29;20035;-71
2021/01/15 04:05:22;;;;;;;21.13;12.27;;;38.80;2201.60;;;;;;4937374;29;20099;-73
2021/01/15 04:07:48;;;;;;;19.17;12.07;;;38.80;2201.60;;;;;;4936764;29;20031;-71
2021/01/15 04:10:16;;;;;;;16.50;11.80;;;38.80;2201.60;;;;;;4935559;29;20106;-69
2021/01/15 04:12:42;;;;;;;19.55;11.10;;;38.80;2201.60;;;;;;4936304;29;20114;-69
2021/01/15 04:15:13;;;;;;;17.73;11.85;;;38.70;2201.60;;;;;;4935548;29;20042;-70
2021/01/15 04:17:39;;;;;;;17.65;11.60;;;38.80;2201.60;;;;;;4936014;29;20032;-71
2021/01/15 04:20:09;;;;;;;16.88;11.38;;;38.80;2201.60;;;;;;4935995;29;20035;-71
2021/01/15 04:22:42;;;;;;;16.35;10.20;;;38.80;2201.60;;;;;;4935678;29;20023;-71
2021/01/15 04:25:09;;;;;;;16.42;12.02;;;38.80;2201.60;;;;;;4935486;29;20520;-70
2021/01/15 04:27:36;;;;;;;17.63;11.73;;;38.80;2201.60;;;;;;4936045;29;20031;-72
2021/01/15 04:30:05;;;;;;;18.60;11.77;;;38.80;2201.60;;;;;;4936048;29;20028;-70
2021/01/15 04:32:31;;;;;;;15.75;11.30;;;38.80;2201.60;;;;;;4936629;29;20028;-71
2021/01/15 04:34:57;;;;;;;17.35;11.80;;;38.80;2201.60;;;;;;4934529;29;20027;-69
2021/01/15 04:37:23;;;;;;;17.88;11.38;;;38.80;2201.60;;;;;;4933641;29;20111;-70
2021/01/15 04:39:49;;;;;;;20.83;11.45;;;38.70;2201.60;;;;;;4935091;29;20457;-71
2021/01/15 04:42:16;;;;;;;16.33;10.90;;;38.70;2201.60;;;;;;4937184;29;20422;-71
2021/01/15 04:44:42;;;;;;;18.23;12.05;;;38.70;2201.60;;;;;;4935214;29;20508;-69
2021/01/15 04:47:09;;;;;;;15.05;10.63;;;38.60;2201.60;;;;;;4935498;29;20075;-69
2021/01/15 04:49:40;;;;;;;15.23;11.52;;;38.60;2201.60;;;;;;4935681;29;20442;-69
2021/01/15 04:52:14;;;;;;;19.52;12.95;;;38.50;2201.60;;;;;;4934895;29;20030;-68
2021/01/15 04:54:42;;;;;;;16.48;11.45;;;38.50;2201.60;;;;;;4934679;29;20554;-73
2021/01/15 04:57:09;;;;;;;16.42;12.00;;;38.50;2201.60;;;;;;4935415;29;20031;-71
2021/01/15 04:59:48;;;;;;;19.50;12.73;;;38.40;2201.60;;;;;;4935321;29;20390;-71
2021/01/15 05:02:18;;;;;;;16.77;12.00;;;38.50;2201.60;;;;;;4935191;29;20027;-70
2021/01/15 05:04:44;;;;;;;18.52;12.57;;;38.50;2201.60;;;;;;4934034;29;20040;-71
2021/01/15 05:07:12;;;;;;;15.48;11.13;;;38.40;2201.60;;;;;;4932384;29;20102;-68
2021/01/15 05:09:39;;;;;;;22.63;17.02;;;38.40;2201.60;;;;;;4938017;29;20031;-77
2021/01/15 05:12:11;;;;;;;18.30;12.15;;;38.40;2201.60;;;;;;4935824;29;20019;-71
2021/01/15 05:14:37;;;;;;;15.48;11.20;;;38.40;2201.60;;;;;;4917045;29;20463;-71
2021/01/15 05:17:06;;;;;;;19.20;11.85;;;38.40;2201.60;;;;;;4934585;29;20026;-71
2021/01/15 05:19:32;;;;;;;15.57;11.02;;;38.40;2201.60;;;;;;4929102;29;20044;-71
2021/01/15 05:21:58;;;;;;;18.10;11.93;;;38.40;2201.60;;;;;;4935226;29;20086;-69
2021/01/15 05:24:25;;;;;;;16.13;11.65;;;38.40;2201.60;;;;;;4935745;29;20040;-71
2021/01/15 05:26:51;;;;;;;16.48;11.27;;;38.40;2201.60;;;;;;4934377;29;20038;-71
2021/01/15 05:29:17;;;;;;;16.13;11.13;;;38.40;2201.60;;;;;;4934390;29;20035;-71
2021/01/15 05:31:56;;;;;;;27.90;14.48;;;13.70;2201.60;;;;;;4934939;29;20115;-72
2021/01/15 05:34:24;;;;;;;21.65;14.55;;;13.60;2201.60;;;;;;4935340;29;20553;-71
2021/01/15 05:36:50;;;;;;;16.48;12.50;;;13.60;2201.60;;;;;;4931035;29;20055;-74
2021/01/15 05:39:15;;;;;;;17.65;11.93;;;13.60;2201.60;;;;;;4935061;29;20500;-70
2021/01/15 05:41:42;;;;;;;17.50;13.00;;;13.70;2201.60;;;;;;4932970;29;21835;-66
2021/01/15 05:44:10;;;;;;;18.08;11.77;;;13.70;2201.60;;;;;;4935010;29;20039;-75
2021/01/15 05:46:46;;;;;;;19.33;12.52;;;13.70;2201.60;;;;;;4930374;29;20106;-71
2021/01/15 05:49:12;;;;;;;17.08;12.20;;;38.40;2201.60;;;;;;4927573;29;20036;-70
2021/01/15 05:51:39;;;;;;;18.02;12.70;;;38.40;2201.60;;;;;;4933147;29;20457;-71
2021/01/15 05:54:09;;;;;;;18.30;12.40;;;38.50;2201.60;;;;;;4933908;29;20032;-74
2021/01/15 05:56:45;;;;;;;18.23;12.18;;;38.50;2201.60;;;;;;4917759;29;20031;-77
2021/01/15 05:59:18;;;;;;;18.70;12.38;;;38.50;2201.60;;;;;;4909437;29;20934;-66
2021/01/15 06:01:51;;;;;;;18.03;12.70;;;38.50;2201.60;;;;;;4901734;29;20491;-65
2021/01/15 06:04:19;;;;;;;18.33;12.43;;;38.50;2201.60;;;;;;4897758;29;20170;-71
2021/01/15 06:06:50;;;;;;;20.05;13.48;;;38.60;2201.60;;;;;;4897180;29;20392;-74
2021/01/15 06:09:20;;;;;;;20.50;14.65;;;38.50;2201.60;;;;;;4893180;29;20044;-74
2021/01/15 06:11:47;;;;;;;22.35;15.00;;;38.60;2201.60;;;;;;4892858;29;20032;-70
2021/01/15 06:14:27;;;;;;;22.45;14.57;;;38.60;2201.60;;;;;;4890995;29;20032;-68
2021/01/15 06:17:06;;;;;;;24.40;16.67;;;38.50;2201.60;;;;;;4900745;29;20443;-69
2021/01/15 06:19:47;;;;;;;26.75;17.60;;;38.60;2201.60;;;;;;4900602;29;20049;-70
2021/01/15 06:22:43;;;;;;;26.52;17.08;;;38.50;2201.60;;;;;;4900024;29;20112;-69
2021/01/15 06:25:21;;;;;;;24.40;16.70;;;38.50;2201.60;;;;;;4901070;29;20042;-70
2021/01/15 06:27:47;;;;;;;24.38;16.35;;;13.70;2201.60;;;;;;4901959;29;20153;-69
2021/01/15 06:30:25;;;;;;;25.25;16.58;;;13.70;2201.60;;;;;;4903390;29;20030;-69
2021/01/15 06:32:52;;;;;;;24.45;16.27;;;38.40;2201.60;;;;;;4904551;29;20047;-70
2021/01/15 06:35:25;;;;;;;26.40;17.70;;;38.40;2201.60;;;;;;4904046;29;20127;-69
2021/01/15 06:37:59;;;;;;;23.73;16.73;;;38.40;2201.60;;;;;;4903343;29;20059;-69
2021/01/15 06:40:30;;;;;;;;;;;38.50;2201.60;;;;;;4905071;29;20035;-69
2021/01/15 06:42:58;;;;;;;29.25;17.63;;;38.40;2201.60;;;;;;4904600;29;20727;-69
2021/01/15 06:45:24;;;;;;;30.38;18.45;;;38.50;2201.60;;;;;;4904526;29;20031;-69
2021/01/15 06:47:54;;;;;;;28.33;19.40;;;38.40;2201.60;;;;;;4902923;29;20219;-73
2021/01/15 06:50:20;;;;;;;29.98;19.58;;;38.90;2201.60;;;;;;4903609;29;20035;-72
2021/01/15 06:52:49;;;;;;;34.67;22.85;;;13.60;2201.60;;;;;;4902886;29;20042;-69
2021/01/15 06:55:17;;;;;;;37.63;23.08;;;13.50;2201.60;;;;;;4907336;29;20139;-70
2021/01/15 06:57:48;;;;;;;50.88;35.03;;;13.70;2201.60;;;;;;4905623;29;20027;-71
2021/01/15 07:00:21;;;;;;;40.58;27.35;;;38.60;2201.60;;;;;;4901991;29;20040;-69
2021/01/15 07:03:14;;;;;;;36.08;21.30;;;13.50;2201.60;;;;;;4901993;29;20027;-68
2021/01/15 07:05:46;;;;;;;42.63;29.48;;;13.50;2201.60;;;;;;4897360;29;20039;-69
2021/01/15 07:08:13;;;;;;;60.05;40.47;;;13.40;2201.60;;;;;;4922941;29;20036;-75
2021/01/15 07:10:40;;;;;;;44.83;31.40;;;13.30;2201.60;;;;;;4917833;29;20061;-72
2021/01/15 07:13:10;;;;;;;35.97;23.52;;;13.20;2201.60;;;;;;4931485;29;20034;-72
2021/01/15 07:15:42;;;;;;;43.72;25.95;;;13.30;2201.60;;;;;;4950861;28;20026;-70
2021/01/15 07:18:33;;;;;;;39.20;26.00;;;13.10;2201.60;;;;;;4940557;28;20015;-69
2021/01/15 07:21:07;;;;;;;31.60;23.88;;;13.40;2201.60;;;;;;4890973;29;20148;-70
2021/01/15 07:23:48;;;;;;;41.13;28.60;;;13.30;2201.60;;;;;;4886937;29;20044;-70
2021/01/15 07:26:14;;;;;;;32.42;19.33;;;0.00;2201.60;;;;;;4844264;29;20455;-69
2021/01/15 07:28:41;;;;;;;28.92;20.63;;;0.40;2201.60;;;;;;4852040;29;20025;-75
2021/01/15 07:31:39;;;;;;;29.95;18.90;;;0.10;2201.60;;;;;;4877017;29;20044;-73
2021/01/15 07:34:38;;;;;;;27.88;18.42;;;0.40;2201.60;;;;;;4898784;29;20073;-70
2021/01/15 07:37:27;;;;;;;23.25;16.23;;;0.50;2201.60;;;;;;4891700;29;20133;-71
2021/01/15 07:40:12;;;;;;;30.95;17.50;;;0.80;2201.60;;;;;;4885346;29;20045;-71
2021/01/15 07:42:40;;;;;;;24.30;16.10;;;0.80;2201.60;;;;;;4866608;29;20060;-72
2021/01/15 07:45:08;;;;;;;26.40;18.80;;;0.80;2201.60;;;;;;4887414;29;20037;-73
2021/01/15 07:47:37;;;;;;;26.02;18.63;;;0.60;2201.60;;;;;;4900817;29;20069;-72
2021/01/15 07:50:05;;;;;;;27.35;17.98;;;0.90;2201.60;;;;;;4905041;29;20037;-77
2021/01/15 07:52:31;;;;;;;34.70;22.40;;;25.80;2201.60;;;;;;4901660;29;20021;-71
2021/01/15 07:54:59;;;;;;;26.90;18.30;;;26.00;2176.00;;;;;;4892460;29;20028;-71
2021/01/15 07:57:27;;;;;;;40.63;23.67;;;26.30;2176.00;;;;;;4887625;29;20911;-73
2021/01/15 07:59:53;;;;;;;51.30;29.60;;;26.40;2150.40;;;;;;4930353;28;20043;-69
2021/01/15 08:02:20;;;;;;;38.38;22.27;;;26.40;2099.20;;;;;;4933411;28;20036;-72
2021/01/15 08:04:46;;;;;;;32.42;20.63;;;51.20;2176.00;;;;;;4923866;29;20055;-72
2021/01/15 08:07:22;;;;;;;27.92;19.38;;;51.20;2150.40;;;;;;4934374;28;20019;-71
2021/01/15 08:09:48;;;;;;;27.02;16.95;;;51.30;2099.20;;;;;;4927306;29;20034;-70
2021/01/15 08:12:14;;;;;;;27.05;19.35;;;51.90;2124.80;;;;;;4914643;28;20713;-70
2021/01/15 08:14:40;;;;;;;27.38;18.33;;;51.60;2073.60;;;;;;4897066;29;20036;-70
2021/01/15 08:17:14;;;;;;;28.85;19.48;;;51.50;2073.60;;;;;;4898596;29;20482;-69
2021/01/15 08:19:41;;;;;;;34.70;22.50;;;51.60;2099.20;;;;;;4896674;29;20470;-70
2021/01/15 08:22:12;;;;;;;37.63;23.48;;;51.60;2073.60;;;;;;4896274;29;20100;-70
2021/01/15 08:24:45;;;;;;;29.38;19.90;;;51.50;2073.60;;;;;;4897225;29;20394;-70
2021/01/15 08:27:19;;;;;;;31.90;19.50;;;51.70;2073.60;;;;;;4897494;29;20465;-73
2021/01/15 08:29:45;;;;;;;28.85;18.30;;;51.70;2073.60;;;;;;4896805;29;20544;-72
2021/01/15 08:32:11;;;;;;;27.20;17.85;;;51.70;2048.00;;;;;;4898886;29;20441;-72
2021/01/15 08:34:38;;;;;;;28.73;19.17;;;51.70;2073.60;;;;;;4894973;29;20043;-72
2021/01/15 08:37:06;;;;;;;23.65;16.30;;;51.70;2073.60;;;;;;4897675;29;20450;-70
2021/01/15 08:39:42;;;;;;;25.55;16.27;;;51.70;2022.40;;;;;;4912704;29;20032;-72
2021/01/15 08:42:08;;;;;;;21.10;15.73;;;51.80;2048.00;;;;;;4907981;29;20373;-74
2021/01/15 08:44:35;;;;;;;29.75;20.38;;;77.30;2048.00;;;;;;4900410;29;20047;-75
2021/01/15 08:47:20;;;;;;;29.00;20.83;;;76.80;2022.40;;;;;;4916607;28;20020;-70
2021/01/15 08:49:56;;;;;;;49.78;38.50;;;52.00;1971.20;;;;;;4924739;28;20039;-76
2021/01/15 08:52:26;;;;;;;29.27;21.75;;;52.00;2022.40;;;;;;4898966;29;20914;-76
2021/01/15 08:54:52;;;;;;;26.58;16.88;;;51.90;2022.40;;;;;;4968836;23;20040;-77
2021/01/15 08:57:39;;;;;;;23.52;17.00;;;76.90;2022.40;;;;;;4916727;29;20076;-71
2021/01/15 09:00:12;;;;;;;22.88;15.77;;;52.00;2048.00;;;;;;4918317;29;20036;-71
2021/01/15 09:02:41;;;;;;;27.17;18.05;;;52.00;2022.40;;;;;;4880941;29;20102;-69
2021/01/15 09:05:09;;;;;;;23.00;17.83;;;52.10;2048.00;;;;;;4878553;29;20044;-72
2021/01/15 09:07:43;;;;;;;23.70;15.35;;;52.10;2048.00;;;;;;4878970;29;20042;-70
2021/01/15 09:10:10;;;;;;;;;;;51.90;2022.40;;;;;;4865022;29;20044;-69
2021/01/15 09:12:43;;;;;;;24.13;16.80;;;51.90;2073.60;;;;;;4867133;29;19929;-70
2021/01/15 09:15:29;;;;;;;;;;;52.00;2073.60;;;;;;4874931;29;20115;-70
2021/01/15 09:17:56;;;;;;;31.20;19.90;;;52.00;1996.80;;;;;;4866369;29;19907;-70
2021/01/15 09:20:41;;;;;;;;;;;;;;;;;;;;;
2021/01/15 09:23:07;;;;;;;26.80;18.33;;;77.00;1996.80;;;;;;4851148;29;20043;-71
2021/01/15 09:25:33;;;;;;;24.67;17.25;;;77.20;1971.20;;;;;;4868465;29;20045;-71
2021/01/15 09:27:59;;;;;;;21.38;15.55;;;77.50;1945.60;;;;;;4866684;29;20143;-72
2021/01/15 09:30:26;;;;;;;23.33;15.98;;;77.20;1996.80;;;;;;4873809;29;20099;-70
2021/01/15 09:32:53;;;;;;;22.70;14.77;;;77.20;1971.20;;;;;;4880978;29;20167;-75
2021/01/15 09:35:19;;;;;;;18.45;13.70;;;77.30;1971.20;;;;;;4914301;29;20028;-72
2021/01/15 09:37:46;;;;;;;18.60;13.80;;;77.30;1971.20;;;;;;4898650;23;20054;-74
2021/01/15 09:40:12;;;;;;;18.55;13.05;;;77.40;1945.60;;;;;;4887870;29;20028;-72
2021/01/15 09:42:38;;;;;;;19.88;13.43;;;77.30;1945.60;;;;;;4890396;29;20750;-70
2021/01/15 09:45:05;;;;;;;21.10;13.73;;;77.40;1920.00;;;;;;4893548;29;20112;-71
2021/01/15 09:47:32;;;;;;;20.45;15.70;;;77.30;1920.00;;;;;;4900152;29;20040;-72
2021/01/15 09:49:57;;;;;;;26.85;15.70;;;77.10;1920.00;;;;;;4899481;29;20031;-80
2021/01/15 09:52:23;;;;;;;22.90;14.50;;;77.10;1945.60;;;;;;4904690;29;20177;-72
2021/01/15 09:54:49;;;;;;;25.65;17.30;;;77.10;1971.20;;;;;;4897104;29;20035;-73
2021/01/15 09:57:15;;;;;;;22.90;16.50;;;77.10;1971.20;;;;;;4902074;29;20040;-80
2021/01/15 09:59:40;;;;;;;21.25;14.63;;;77.20;1945.60;;;;;;4905438;29;20385;-86
2021/01/15 10:02:06;;;;;;;25.92;17.17;;;77.20;1920.00;;;;;;4912497;29;21000;-76
2021/01/15 10:04:32;;;;;;;21.70;14.50;;;77.30;1971.20;;;;;;4900597;29;20492;-73
2021/01/15 10:07:00;;;;;;;23.25;14.75;;;77.30;1945.60;;;;;;4903552;28;20416;-69
2021/01/15 10:09:25;;;;;;;23.00;16.45;;;77.20;1971.20;;;;;;4908217;29;20003;-73
2021/01/15 10:11:51;;;;;;;18.40;13.45;;;77.00;1971.20;;;;;;4952982;28;20099;-70
2021/01/15 10:14:17;;;;;;;20.13;13.38;;;76.80;1971.20;;;;;;4912890;29;20039;-78
2021/01/15 10:16:49;;;;;;;20.52;14.20;;;52.10;1971.20;;;;;;4910859;29;20106;-81
2021/01/15 10:19:16;;;;;;;22.85;13.57;;;52.00;1971.20;;;;;;4940121;28;20107;-71
2021/01/15 10:21:43;;;;;;;21.52;15.57;;;52.00;1971.20;;;;;;4936137;29;20145;-81
2021/01/15 10:24:09;;;;;;;24.70;15.95;;;51.90;2022.40;;;;;;4950703;29;20034;-76
2021/01/15 10:27:02;;;;;;;25.77;18.20;;;51.90;2022.40;;;;;;4949032;28;20011;-71
2021/01/15 10:29:31;;;;;;;28.15;17.60;;;51.80;2022.40;;;;;;4955944;28;20031;-70
2021/01/15 10:31:57;;;;;;;28.00;17.73;;;51.80;2022.40;;;;;;4940065;28;20031;-79
2021/01/15 10:34:23;;;;;;;26.88;16.75;;;51.80;2073.60;;;;;;4907027;29;20031;-72
2021/01/15 10:36:51;;;;;;;29.52;17.42;;;51.60;2048.00;;;;;;4956405;28;20043;-71
2021/01/15 10:39:18;;;;;;;23.35;15.18;;;51.60;2048.00;;;;;;4950487;28;20024;-70
2021/01/15 10:41:51;;;;;;;22.42;15.20;;;51.60;2073.60;;;;;;4946848;29;20100;-69
2021/01/15 10:44:19;;;;;;;;;;;51.50;2073.60;;;;;;4943923;28;20067;-70
2021/01/15 10:47:30;;;;;;;22.70;15.50;;;76.90;2073.60;;;;;;4954315;28;19915;-74
2021/01/15 10:49:56;;;;;;;22.48;15.55;;;51.50;2073.60;;;;;;4918197;29;20043;-69
2021/01/15 10:52:34;;;;;;;25.00;15.05;;;51.50;2073.60;;;;;;4945747;28;20039;-73
2021/01/15 10:55:00;;;;;;;23.23;16.45;;;51.40;2073.60;;;;;;4901513;29;20027;-72
2021/01/15 10:57:26;;;;;;;28.38;17.13;;;51.30;2124.80;;;;;;4902444;29;20040;-70
2021/01/15 10:59:52;;;;;;;28.15;18.98;;;51.20;2124.80;;;;;;4955437;28;20012;-76
2021/01/15 11:02:17;;;;;;;25.67;17.50;;;51.20;2150.40;;;;;;4912451;29;20059;-77
2021/01/15 11:04:43;;;;;;;24.10;15.98;;;51.30;2150.40;;;;;;4900523;29;20032;-71
2021/01/15 11:07:09;;;;;;;23.83;17.70;;;26.50;2124.80;;;;;;4904473;29;20567;-71
2021/01/15 11:09:34;;;;;;;26.10;18.10;;;26.40;2124.80;;;;;;4909649;29;20766;-77
2021/01/15 11:12:00;;;;;;;28.40;19.08;;;26.50;2150.40;;;;;;4948783;28;20037;-72
2021/01/15 11:14:52;;;;;;;28.63;19.77;;;26.40;2124.80;;;;;;4896244;28;20048;-71
2021/01/15 11:17:30;;;;;;;25.10;17.80;;;26.40;2150.40;;;;;;4934080;29;20048;-71
2021/01/15 11:19:56;;;;;;;36.90;26.90;;;26.30;2176.00;;;;;;4942969;28;20043;-74
2021/01/15 11:22:22;;;;;;;31.13;22.70;;;26.40;2176.00;;;;;;4903838;29;20027;-69
2021/01/15 11:24:47;;;;;;;30.35;21.60;;;26.30;2201.60;;;;;;4902905;29;20036;-71
2021/01/15 11:27:13;;;;;;;31.20;22.35;;;26.30;2201.60;;;;;;4904258;29;20110;-71
2021/01/15 11:29:39;;;;;;;31.45;20.30;;;26.20;2201.60;;;;;;4927203;29;20032;-72
2021/01/15 11:32:05;;;;;;;30.98;20.58;;;26.20;2201.60;;;;;;4921282;29;20012;-71
2021/01/15 11:34:33;;;;;;;36.28;23.17;;;26.10;2201.60;;;;;;4925577;29;20529;-75
2021/01/15 11:37:00;;;;;;;36.85;23.50;;;26.20;2201.60;;;;;;4909684;29;20421;-71
2021/01/15 11:39:26;;;;;;;33.67;22.10;;;26.40;2201.60;;;;;;4913484;29;20039;-71
2021/01/15 11:41:52;;;;;;;32.45;21.08;;;26.20;2201.60;;;;;;4933918;28;20336;-74
2021/01/15 11:44:18;;;;;;;32.53;22.38;;;26.10;2201.60;;;;;;4900681;29;20135;-72
2021/01/15 11:46:44;;;;;;;25.33;19.40;;;26.10;2201.60;;;;;;4900250;29;20040;-73
2021/01/15 11:49:09;;;;;;;25.10;18.17;;;26.20;2201.60;;;;;;4902832;29;20034;-71
2021/01/15 11:51:35;;;;;;;27.83;18.90;;;26.20;2201.60;;;;;;4903765;29;20031;-73
2021/01/15 11:54:01;;;;;;;29.30;20.20;;;26.20;2201.60;;;;;;4911527;29;20115;-70
2021/01/15 11:56:27;;;;;;;26.88;19.38;;;26.30;2201.60;;;;;;4920604;29;20039;-76
2021/01/15 11:58:53;;;;;;;25.50;18.25;;;26.30;2201.60;;;;;;4908414;29;20024;-71
2021/01/15 12:01:35;;;;;;;26.95;17.98;;;26.30;2201.60;;;;;;4927759;29;20010;-78
2021/01/15 12:04:01;;;;;;;29.25;19.25;;;51.20;2227.20;;;;;;4928729;29;20020;-75
2021/01/15 12:06:27;;;;;;;30.17;20.60;;;26.30;2201.60;;;;;;4913668;29;20061;-75
2021/01/15 12:08:52;;;;;;;30.15;19.92;;;26.40;2201.60;;;;;;4944918;28;20035;-72
2021/01/15 12:11:18;;;;;;;24.23;18.25;;;26.40;2201.60;;;;;;4922461;29;20026;-71
2021/01/15 12:13:44;;;;;;;26.70;18.45;;;26.40;2201.60;;;;;;4920418;29;20127;-70
2021/01/15 12:16:11;;;;;;;38.40;25.60;;;26.40;2201.60;;;;;;4901709;29;20031;-72
2021/01/15 12:18:37;;;;;;;28.60;19.35;;;26.50;2201.60;;;;;;4941976;28;20023;-79
2021/01/15 12:21:03;;;;;;;27.38;20.17;;;26.50;2201.60;;;;;;4933825;28;20039;-72
2021/01/15 12:23:29;;;;;;;28.60;19.95;;;26.50;2201.60;;;;;;4925931;29;20032;-80